createdAt,value
2022-09-26T00:01:54.728Z,100.00
2022-09-26T00:04:44.609Z,100.00
2022-09-26T00:07:33.050Z,100.00
2022-09-26T00:10:21.471Z,100.00
2022-09-26T00:13:09.922Z,100.00
2022-09-26T00:15:58.809Z,100.00
2022-09-26T00:18:49.543Z,100.00
2022-09-26T00:21:39.407Z,100.00
2022-09-26T00:24:27.928Z,100.00
2022-09-26T00:27:16.434Z,100.00
2022-09-26T00:30:05.563Z,100.00
2022-09-26T00:32:53.986Z,100.00
2022-09-26T00:35:42.483Z,100.00
2022-09-26T00:38:32.329Z,100.00
2022-09-26T00:41:20.801Z,100.00
2022-09-26T00:44:48.076Z,100.00
2022-09-26T00:47:40.720Z,100.00
2022-09-26T00:50:32.473Z,100.00
2022-09-26T00:53:25.223Z,100.00
2022-09-26T00:56:18.490Z,100.00
2022-09-26T00:59:11.188Z,100.00
2022-09-26T01:02:00.871Z,100.00
2022-09-26T01:04:49.624Z,100.00
2022-09-26T01:07:38.053Z,100.00
2022-09-26T01:10:26.701Z,100.00
2022-09-26T01:13:16.626Z,100.00
2022-09-26T01:16:05.135Z,100.00
2022-09-26T01:18:53.584Z,100.00
2022-09-26T01:22:02.994Z,100.00
2022-09-26T01:25:02.342Z,100.00
2022-09-26T01:28:07.611Z,100.00
2022-09-26T01:31:02.006Z,100.00
2022-09-26T01:33:58.282Z,100.00
2022-09-26T01:36:57.352Z,100.00
2022-09-26T01:39:53.884Z,100.00
2022-09-26T01:42:50.440Z,100.00
2022-09-26T01:45:45.825Z,100.00
2022-09-26T01:48:39.087Z,100.00
2022-09-26T01:51:30.866Z,100.00
2022-09-26T01:54:20.927Z,100.00
2022-09-26T01:57:13.795Z,100.00
2022-09-26T02:00:05.320Z,100.00
2022-09-26T02:02:56.404Z,100.00
2022-09-26T02:05:48.603Z,100.00
2022-09-26T02:08:39.551Z,100.00
2022-09-26T02:11:28.083Z,100.00
2022-09-26T02:14:19.679Z,100.00
2022-09-26T02:17:12.204Z,100.00
2022-09-26T02:20:02.579Z,100.00
2022-09-26T02:22:52.356Z,100.00
2022-09-26T02:25:40.898Z,100.00
2022-09-26T02:28:29.415Z,100.00
2022-09-26T02:31:22.034Z,100.00
2022-09-26T02:34:10.630Z,100.00
2022-09-26T02:37:01.099Z,100.00
2022-09-26T02:39:51.563Z,100.00
2022-09-26T02:42:45.662Z,100.00
2022-09-26T02:45:40.035Z,100.00
2022-09-26T02:48:38.930Z,100.00
2022-09-26T02:51:46.528Z,100.00
2022-09-26T02:54:40.663Z,100.00
2022-09-26T02:57:35.656Z,100.00
2022-09-26T03:00:26.699Z,100.00
2022-09-26T03:03:20.421Z,100.00
2022-09-26T03:06:11.188Z,100.00
2022-09-26T03:09:00.329Z,100.00
2022-09-26T03:11:49.173Z,100.00
2022-09-26T03:14:40.727Z,100.00
2022-09-26T03:17:29.394Z,100.00
2022-09-26T03:20:19.988Z,100.00
2022-09-26T03:23:08.859Z,100.00
2022-09-26T03:26:02.540Z,100.00
2022-09-26T03:28:51.845Z,100.00
2022-09-26T03:31:41.641Z,100.00
2022-09-26T03:34:30.115Z,100.00
2022-09-26T03:37:18.764Z,100.00
2022-09-26T03:40:10.290Z,100.00
2022-09-26T03:42:58.811Z,100.00
2022-09-26T03:45:47.334Z,100.00
2022-09-26T03:48:37.163Z,100.00
2022-09-26T03:51:25.996Z,100.00
2022-09-26T03:54:14.885Z,100.00
2022-09-26T03:57:03.319Z,100.00
2022-09-26T03:59:51.929Z,100.00
2022-09-26T04:02:40.421Z,100.00
2022-09-26T04:05:30.974Z,100.00
2022-09-26T04:08:19.375Z,100.00
2022-09-26T04:11:09.629Z,100.00
2022-09-26T04:13:58.055Z,100.00
2022-09-26T04:16:46.964Z,100.00
2022-09-26T04:19:35.433Z,100.00
2022-09-26T04:22:25.799Z,100.00
2022-09-26T04:25:14.334Z,100.00
2022-09-26T04:28:02.919Z,100.00
2022-09-26T04:30:51.713Z,100.00
2022-09-26T04:33:40.705Z,100.00
2022-09-26T04:36:29.165Z,100.00
2022-09-26T04:39:18.966Z,100.00
2022-09-26T04:42:07.473Z,100.00
2022-09-26T04:44:55.950Z,100.00
2022-09-26T04:47:44.383Z,100.00
2022-09-26T04:50:32.786Z,100.00
2022-09-26T04:53:21.279Z,100.00
2022-09-26T04:56:12.210Z,100.00
2022-09-26T04:59:02.175Z,100.00
2022-09-26T05:01:50.656Z,100.00
2022-09-26T05:04:39.139Z,100.00
2022-09-26T05:07:27.993Z,100.00
2022-09-26T05:10:16.738Z,100.00
2022-09-26T05:13:07.854Z,100.00
2022-09-26T05:15:56.753Z,100.00
2022-09-26T05:18:45.366Z,100.00
2022-09-26T05:21:33.791Z,100.00
2022-09-26T05:24:39.615Z,100.00
2022-09-26T05:27:28.026Z,100.00
2022-09-26T05:30:18.025Z,100.00
2022-09-26T05:33:06.456Z,100.00
2022-09-26T05:35:54.873Z,100.00
2022-09-26T05:38:43.295Z,100.00
2022-09-26T05:41:31.507Z,100.00
2022-09-26T05:44:20.080Z,100.00
2022-09-26T05:47:09.933Z,100.00
2022-09-26T05:49:58.389Z,100.00
2022-09-26T05:52:46.876Z,100.00
2022-09-26T05:55:35.307Z,100.00
2022-09-26T05:58:23.794Z,100.00
2022-09-26T06:01:13.722Z,100.00
2022-09-26T06:04:03.793Z,100.00
2022-09-26T06:06:52.261Z,100.00
2022-09-26T06:09:40.659Z,100.00
2022-09-26T06:12:29.121Z,100.00
2022-09-26T06:15:17.883Z,100.00
2022-09-26T06:18:06.452Z,100.00
2022-09-26T06:20:56.236Z,100.00
2022-09-26T06:23:45.092Z,100.00
2022-09-26T06:26:33.517Z,100.00
2022-09-26T06:29:21.955Z,100.00
2022-09-26T06:32:10.448Z,100.00
2022-09-26T06:34:58.928Z,100.00
2022-09-26T06:37:48.781Z,100.00
2022-09-26T06:40:37.473Z,100.00
2022-09-26T06:43:26.168Z,100.00
2022-09-26T06:46:14.980Z,100.00
2022-09-26T06:49:03.537Z,100.00
2022-09-26T06:51:51.992Z,99.17
2022-09-26T06:54:42.128Z,100.00
2022-09-26T06:57:31.825Z,100.00
2022-09-26T07:00:20.379Z,100.00
2022-09-26T07:03:08.831Z,100.00
2022-09-26T07:05:57.612Z,100.00
2022-09-26T07:09:03.831Z,100.00
2022-09-26T07:12:14.251Z,100.00
2022-09-26T07:15:04.279Z,100.00
2022-09-26T07:17:53.553Z,100.00
2022-09-26T07:20:46.490Z,100.00
2022-09-26T07:23:35.213Z,100.00
2022-09-26T07:26:23.606Z,100.00
2022-09-26T07:29:13.463Z,100.00
2022-09-26T07:32:02.116Z,99.46
2022-09-26T07:34:51.519Z,96.53
2022-09-26T07:37:39.964Z,94.56
2022-09-26T07:40:28.692Z,91.17
2022-09-26T07:43:22.408Z,88.92
2022-09-26T07:46:38.022Z,86.82
2022-09-26T07:49:43.935Z,84.81
2022-09-26T07:52:32.379Z,82.63
2022-09-26T07:55:22.633Z,80.53
2022-09-26T07:58:11.044Z,79.36
2022-09-26T08:00:59.570Z,76.77
2022-09-26T08:03:49.511Z,76.49
2022-09-26T08:06:38.067Z,75.55
2022-09-26T08:09:26.609Z,74.38
2022-09-26T08:12:15.589Z,72.27
2022-09-26T08:15:06.154Z,72.32
2022-09-26T08:17:55.056Z,70.89
2022-09-26T08:20:47.189Z,71.66
2022-09-26T08:23:35.782Z,71.50
2022-09-26T08:26:24.240Z,72.25
2022-09-26T08:29:12.976Z,71.69
2022-09-26T08:32:02.170Z,71.32
2022-09-26T08:34:52.544Z,70.68
2022-09-26T08:37:42.328Z,69.46
2022-09-26T08:40:36.626Z,68.80
2022-09-26T08:43:38.055Z,69.65
2022-09-26T08:46:46.690Z,68.37
2022-09-26T08:49:59.733Z,66.87
2022-09-26T08:52:51.986Z,68.10
2022-09-26T08:55:43.047Z,68.79
2022-09-26T08:58:38.714Z,66.96
2022-09-26T09:01:29.725Z,67.50
2022-09-26T09:04:22.186Z,65.85
2022-09-26T09:07:17.284Z,65.51
2022-09-26T09:10:11.280Z,63.85
2022-09-26T09:13:05.828Z,63.58
2022-09-26T09:16:05.925Z,63.43
2022-09-26T09:18:59.847Z,64.43
2022-09-26T09:22:00.236Z,61.43
2022-09-26T09:24:54.852Z,61.93
2022-09-26T09:27:54.911Z,61.19
2022-09-26T09:30:46.984Z,61.26
2022-09-26T09:33:39.011Z,62.10
2022-09-26T09:36:30.361Z,63.24
2022-09-26T09:39:24.883Z,64.72
2022-09-26T09:42:18.151Z,65.27
2022-09-26T09:45:15.495Z,65.67
2022-09-26T09:48:04.875Z,66.98
2022-09-26T09:51:02.203Z,67.74
2022-09-26T09:54:28.095Z,68.77
2022-09-26T09:57:25.331Z,67.50
2022-09-26T10:00:17.090Z,68.04
2022-09-26T10:03:13.901Z,66.31
2022-09-26T10:06:02.675Z,62.98
2022-09-26T10:08:51.835Z,64.93
2022-09-26T10:11:42.719Z,63.61
2022-09-26T10:14:35.311Z,63.23
2022-09-26T10:17:25.490Z,61.48
2022-09-26T10:20:39.941Z,61.95
2022-09-26T10:23:32.739Z,62.91
2022-09-26T10:26:30.508Z,63.01
2022-09-26T10:29:24.834Z,63.31
2022-09-26T10:32:13.883Z,66.98
2022-09-26T10:35:08.737Z,69.60
2022-09-26T10:38:02.521Z,74.15
2022-09-26T10:40:53.237Z,76.60
2022-09-26T10:43:53.475Z,83.41
2022-09-26T10:46:45.164Z,88.70
2022-09-26T10:49:39.860Z,90.26
2022-09-26T10:52:34.550Z,93.78
2022-09-26T10:55:26.121Z,96.37
2022-09-26T10:58:18.155Z,96.95
2022-09-26T11:01:07.122Z,98.75
2022-09-26T11:03:57.374Z,100.00
2022-09-26T11:06:46.953Z,99.72
2022-09-26T11:09:38.284Z,98.88
2022-09-26T11:12:29.057Z,100.00
2022-09-26T11:15:17.576Z,100.00
2022-09-26T11:18:06.433Z,100.00
2022-09-26T11:20:58.494Z,95.87
2022-09-26T11:23:53.707Z,93.30
2022-09-26T11:26:51.161Z,95.00
2022-09-26T11:29:44.500Z,95.31
2022-09-26T11:32:41.394Z,95.73
2022-09-26T11:35:43.956Z,96.24
2022-09-26T11:38:39.314Z,96.33
2022-09-26T11:41:39.299Z,93.67
2022-09-26T11:44:49.957Z,96.37
2022-09-26T11:48:10.925Z,95.52
2022-09-26T11:51:04.208Z,96.90
2022-09-26T11:54:24.762Z,96.87
2022-09-26T11:57:36.443Z,99.00
2022-09-26T12:00:30.300Z,99.67
2022-09-26T12:03:36.044Z,100.00
2022-09-26T12:06:33.285Z,100.00
2022-09-26T12:09:42.145Z,100.00
2022-09-26T12:12:40.384Z,100.00
2022-09-26T12:15:36.532Z,100.00
2022-09-26T12:18:33.924Z,100.00
2022-09-26T12:21:29.776Z,100.00
2022-09-26T12:24:24.143Z,100.00
2022-09-26T12:27:18.991Z,100.00
2022-09-26T12:30:11.122Z,100.00
2022-09-26T12:33:32.890Z,100.00
2022-09-26T12:36:31.187Z,100.00
2022-09-26T12:39:30.662Z,100.00
2022-09-26T12:42:34.857Z,100.00
2022-09-26T12:45:53.185Z,100.00
2022-09-26T12:48:54.023Z,100.00
2022-09-26T12:51:47.111Z,100.00
2022-09-26T12:54:55.739Z,100.00
2022-09-26T12:57:58.556Z,100.00
2022-09-26T13:00:54.211Z,100.00
2022-09-26T13:04:02.287Z,100.00
2022-09-26T13:07:20.747Z,100.00
2022-09-26T13:10:29.702Z,100.00
2022-09-26T13:13:45.967Z,100.00
2022-09-26T13:16:42.700Z,100.00
2022-09-26T13:19:34.789Z,100.00
2022-09-26T13:22:31.632Z,100.00
2022-09-26T13:25:22.759Z,100.00
2022-09-26T13:28:13.602Z,100.00
2022-09-26T13:31:06.611Z,88.88
2022-09-26T13:34:03.292Z,86.86
2022-09-26T13:36:54.306Z,85.06
2022-09-26T13:39:50.758Z,81.22
2022-09-26T13:42:43.849Z,82.22
2022-09-26T13:45:46.301Z,81.19
2022-09-26T13:48:42.091Z,79.62
2022-09-26T13:51:40.253Z,81.35
2022-09-26T13:54:32.254Z,81.43
2022-09-26T13:57:34.377Z,78.39
2022-09-26T14:00:49.140Z,76.71
2022-09-26T14:03:43.090Z,77.90
2022-09-26T14:06:34.836Z,77.35
2022-09-26T14:09:28.510Z,74.83
2022-09-26T14:12:33.550Z,75.79
2022-09-26T14:15:24.420Z,74.76
2022-09-26T14:18:24.986Z,74.16
2022-09-26T14:21:36.106Z,71.93
2022-09-26T14:24:36.831Z,70.56
2022-09-26T14:27:29.204Z,70.77
2022-09-26T14:30:27.087Z,70.29
2022-09-26T14:33:17.714Z,71.37
2022-09-26T14:36:25.066Z,72.96
2022-09-26T14:39:25.986Z,70.30
2022-09-26T14:42:22.770Z,72.52
2022-09-26T14:45:22.957Z,73.44
2022-09-26T14:48:16.999Z,71.66
2022-09-26T14:51:08.328Z,72.70
2022-09-26T14:54:00.357Z,71.07
2022-09-26T14:56:50.287Z,71.47
2022-09-26T14:59:45.319Z,71.61
2022-09-26T15:02:40.585Z,71.20
2022-09-26T15:05:29.309Z,72.82
2022-09-26T15:08:26.044Z,69.74
2022-09-26T15:11:26.557Z,71.18
2022-09-26T15:14:22.966Z,71.19
2022-09-26T15:17:16.788Z,71.33
2022-09-26T15:20:09.537Z,70.22
2022-09-26T15:22:58.273Z,71.63
2022-09-26T15:25:46.920Z,73.81
2022-09-26T15:28:38.792Z,71.92
2022-09-26T15:31:38.638Z,72.83
2022-09-26T15:34:33.562Z,71.60
2022-09-26T15:37:25.625Z,72.19
2022-09-26T15:40:18.431Z,71.58
2022-09-26T15:43:11.545Z,70.23
2022-09-26T15:46:03.558Z,69.97
2022-09-26T15:48:56.978Z,71.24
2022-09-26T15:51:45.838Z,73.07
2022-09-26T15:54:35.818Z,70.25
2022-09-26T15:57:24.427Z,70.74
2022-09-26T16:00:14.733Z,71.33
2022-09-26T16:03:21.587Z,71.47
2022-09-26T16:06:24.942Z,71.48
2022-09-26T16:09:19.787Z,69.61
2022-09-26T16:12:19.297Z,69.88
2022-09-26T16:15:17.029Z,69.39
2022-09-26T16:18:05.726Z,68.72
2022-09-26T16:21:15.781Z,70.03
2022-09-26T16:24:23.337Z,69.61
2022-09-26T16:27:23.865Z,69.37
2022-09-26T16:30:37.615Z,70.07
2022-09-26T16:33:31.501Z,69.13
2022-09-26T16:36:21.673Z,69.67
2022-09-26T16:39:21.081Z,68.54
2022-09-26T16:42:16.307Z,68.58
2022-09-26T16:45:07.375Z,69.56
2022-09-26T16:47:55.955Z,69.79
2022-09-26T16:50:44.536Z,68.47
2022-09-26T16:53:33.129Z,69.86
2022-09-26T16:56:23.433Z,69.71
2022-09-26T16:59:17.677Z,70.06
2022-09-26T17:02:09.778Z,69.74
2022-09-26T17:04:58.483Z,68.64
2022-09-26T17:07:50.568Z,68.31
2022-09-26T17:10:39.578Z,69.00
2022-09-26T17:13:29.536Z,68.65
2022-09-26T17:16:18.253Z,67.51
2022-09-26T17:19:11.270Z,68.04
2022-09-26T17:22:00.661Z,67.73
2022-09-26T17:24:50.231Z,66.82
2022-09-26T17:27:40.449Z,67.29
2022-09-26T17:30:29.097Z,67.35
2022-09-26T17:33:17.716Z,68.33
2022-09-26T17:36:10.863Z,67.75
2022-09-26T17:39:00.972Z,67.60
2022-09-26T17:41:51.292Z,68.16
2022-09-26T17:44:41.496Z,67.90
2022-09-26T17:47:30.130Z,66.89
2022-09-26T17:50:22.180Z,67.68
2022-09-26T17:53:20.792Z,67.85
2022-09-26T17:56:12.677Z,68.16
2022-09-26T17:59:01.998Z,68.12
2022-09-26T18:01:56.707Z,65.61
2022-09-26T18:04:45.315Z,66.20
2022-09-26T18:07:36.415Z,65.86
2022-09-26T18:10:30.290Z,66.28
2022-09-26T18:13:26.043Z,66.72
2022-09-26T18:16:14.972Z,65.10
2022-09-26T18:19:07.574Z,66.65
2022-09-26T18:21:58.645Z,64.95
2022-09-26T18:24:48.237Z,71.77
2022-09-26T18:27:40.465Z,66.72
2022-09-26T18:30:29.012Z,67.43
2022-09-26T18:33:19.539Z,67.19
2022-09-26T18:36:11.380Z,68.08
2022-09-26T18:39:00.032Z,68.85
2022-09-26T18:41:50.115Z,69.45
2022-09-26T18:44:43.051Z,70.32
2022-09-26T18:47:34.429Z,70.95
2022-09-26T18:50:33.060Z,71.35
2022-09-26T18:53:23.185Z,72.62
2022-09-26T18:56:30.053Z,74.65
2022-09-26T18:59:18.574Z,76.88
2022-09-26T19:02:20.690Z,78.83
2022-09-26T19:05:12.870Z,83.26
2022-09-26T19:08:02.106Z,87.40
2022-09-26T19:10:50.694Z,89.39
2022-09-26T19:13:39.292Z,92.87
2022-09-26T19:16:27.842Z,94.71
2022-09-26T19:19:18.335Z,96.41
2022-09-26T19:22:10.239Z,100.00
2022-09-26T19:25:01.750Z,100.00
2022-09-26T19:27:52.824Z,100.00
2022-09-26T19:30:41.461Z,100.00
2022-09-26T19:33:30.284Z,100.00
2022-09-26T19:36:20.833Z,100.00
2022-09-26T19:39:11.414Z,100.00
2022-09-26T19:42:00.056Z,100.00
2022-09-26T19:44:49.395Z,100.00
2022-09-26T19:47:39.130Z,100.00
2022-09-26T19:50:28.007Z,100.00
2022-09-26T19:53:19.205Z,100.00
2022-09-26T19:56:08.138Z,100.00
2022-09-26T19:58:57.727Z,100.00
2022-09-26T20:01:47.451Z,100.00
2022-09-26T20:04:36.302Z,100.00
2022-09-26T20:07:24.939Z,100.00
2022-09-26T20:10:16.942Z,100.00
2022-09-26T20:13:05.504Z,100.00
2022-09-26T20:15:54.535Z,100.00
2022-09-26T20:18:43.232Z,100.00
2022-09-26T20:21:32.045Z,100.00
2022-09-26T20:24:20.672Z,100.00
2022-09-26T20:27:16.111Z,100.00
2022-09-26T20:30:25.365Z,100.00
2022-09-26T20:33:14.320Z,100.00
2022-09-26T20:36:04.760Z,100.00
2022-09-26T20:38:55.514Z,100.00
2022-09-26T20:41:44.652Z,100.00
2022-09-26T20:44:34.788Z,100.00
2022-09-26T20:47:23.491Z,100.00
2022-09-26T20:50:16.085Z,100.00
2022-09-26T20:53:04.982Z,100.00
2022-09-26T20:55:55.047Z,100.00
2022-09-26T20:58:44.179Z,100.00
2022-09-26T21:01:34.219Z,100.00
2022-09-26T21:04:25.793Z,100.00
2022-09-26T21:07:16.316Z,100.00
2022-09-26T21:10:21.847Z,100.00
2022-09-26T21:13:10.712Z,100.00
2022-09-26T21:15:59.252Z,100.00
2022-09-26T21:18:51.463Z,100.00
2022-09-26T21:21:40.801Z,100.00
2022-09-26T21:24:31.446Z,100.00
2022-09-26T21:27:19.976Z,100.00
2022-09-26T21:30:13.972Z,100.00
2022-09-26T21:33:02.541Z,100.00
2022-09-26T21:35:52.703Z,100.00
2022-09-26T21:38:41.272Z,100.00
2022-09-26T21:41:29.920Z,100.00
2022-09-26T21:44:22.821Z,100.00
2022-09-26T21:47:11.651Z,100.00
2022-09-26T21:50:00.228Z,100.00
2022-09-26T21:52:52.341Z,100.00
2022-09-26T21:55:44.368Z,100.00
2022-09-26T21:58:36.022Z,100.00
2022-09-26T22:01:24.585Z,100.00
2022-09-26T22:04:13.802Z,100.00
2022-09-26T22:07:02.394Z,100.00
2022-09-26T22:09:52.518Z,100.00
2022-09-26T22:12:41.211Z,100.00
2022-09-26T22:15:29.763Z,100.00
2022-09-26T22:18:18.332Z,100.00
2022-09-26T22:21:07.444Z,100.00
2022-09-26T22:23:55.979Z,100.00
2022-09-26T22:26:46.098Z,100.00
2022-09-26T22:29:34.676Z,100.00
2022-09-26T22:32:23.292Z,100.00
2022-09-26T22:35:11.828Z,100.00
2022-09-26T22:38:00.412Z,100.00
2022-09-26T22:40:56.968Z,100.00
2022-09-26T22:43:49.095Z,100.00
2022-09-26T22:46:38.318Z,100.00
2022-09-26T22:49:26.906Z,100.00
2022-09-26T22:52:15.466Z,100.00
2022-09-26T22:55:04.272Z,100.00
2022-09-26T22:57:52.820Z,100.00
2022-09-26T23:00:43.076Z,100.00
2022-09-26T23:03:33.151Z,100.00
2022-09-26T23:06:22.463Z,100.00
2022-09-26T23:09:11.003Z,100.00
2022-09-26T23:12:02.873Z,100.00
2022-09-26T23:14:51.406Z,100.00
2022-09-26T23:17:41.328Z,100.00
2022-09-26T23:20:29.868Z,100.00
2022-09-26T23:23:18.402Z,100.00
2022-09-26T23:26:07.828Z,100.00
2022-09-26T23:28:58.056Z,100.00
2022-09-26T23:31:46.699Z,100.00
2022-09-26T23:34:36.610Z,100.00
2022-09-26T23:37:25.148Z,100.00
2022-09-26T23:40:13.780Z,100.00
2022-09-26T23:43:02.479Z,100.00
2022-09-26T23:45:51.299Z,100.00
2022-09-26T23:48:40.340Z,100.00
2022-09-26T23:51:30.279Z,100.00
2022-09-26T23:54:18.821Z,100.00
2022-09-26T23:57:07.365Z,100.00
2022-09-26T23:59:55.905Z,100.00
